Adriatic Sea — WDB5553 — position and weather

sailwx.info

Track history (hours):
 
Tides and Currents Weather Stations Pressure Air Temp Water Temp Dewpoint Dewpoint Depression Visibility Wind Speed Wind Dir Waves Ship Positions

Adriatic Sea

Owner: Kirby Offshore Marine, LLC, Seattle, WA. More information available from US FCC via Universal Licensing System and Coast Guard Vessel Documentation Center.

Last reported at 2016-Jun-01 03:33 UTC. Time now 2016-Jun-01 03:42 UTC.
Position N 47°35' W 122°21'.

Length 42 m.

Type: Tug. MMSI: 366910890.

Date/timePositionNaut miles runAvg speedWind from/ knotsBaromVisibWave heightAir tempDewpointWater temp
2016-Jun-01 03:33N 47°35' W 122°21'0 0.0
2016-Jun-01 02:33N 47°35' W 122°21'0 0.0
2016-Jun-01 01:33N 47°35' W 122°21'0 0.0
2016-Jun-01 00:33N 47°35' W 122°21'0 0.0
2016-May-31 23:33N 47°35' W 122°21'0 0.0
2016-May-31 22:33N 47°35' W 122°21'0 0.0
2016-May-31 21:33N 47°35' W 122°21'0 0.0
2016-May-31 20:33N 47°35' W 122°21'0 0.0
2016-May-31 19:33N 47°35' W 122°21'0 0.0
2016-May-31 18:33N 47°35' W 122°21'0 0.0
2016-May-31 17:33N 47°35' W 122°21'0 0.0
2016-May-31 16:33N 47°35' W 122°21'0 0.0
2016-May-31 15:33N 47°35' W 122°21'0 0.0
2016-May-31 14:34N 47°35' W 122°21'0 0.0
2016-May-31 13:33N 47°35' W 122°21'0 0.0
2016-May-31 12:33N 47°35' W 122°21'0 0.0
2016-May-31 11:33N 47°35' W 122°21'0 0.0
2016-May-31 10:33N 47°35' W 122°21'0 0.0
2016-May-31 09:33N 47°35' W 122°21'0 0.0
2016-May-31 08:33N 47°35' W 122°21'0 0.0
2016-May-31 07:33N 47°35' W 122°21'0 0.0
2016-May-31 06:33N 47°35' W 122°21'0 0.0
2016-May-31 04:33N 47°35' W 122°21'0 0.0
2016-May-31 03:33N 47°35' W 122°21'0 0.3
2016-May-31 02:33N 47°36' W 122°21'2 2.3
2016-May-31 01:33N 47°38' W 122°23'0 0.0
2016-May-31 00:33N 47°38' W 122°23'0 0.0
2016-May-30 23:33N 47°38' W 122°23'0 0.0
2016-May-30 22:33N 47°38' W 122°23'0 0.0
2016-May-30 21:33N 47°38' W 122°23'0 0.0
2016-May-30 20:33N 47°38' W 122°23'0 0.0
2016-May-30 19:33N 47°38' W 122°23'0 0.0
2016-May-30 18:33N 47°38' W 122°23'0 0.0
2016-May-30 17:33N 47°38' W 122°23'0 0.0
2016-May-30 16:33N 47°38' W 122°23'0 0.0
2016-May-30 15:34N 47°38' W 122°23'0 0.0
2016-May-30 14:33N 47°38' W 122°23'0 0.0
2016-May-30 13:33N 47°38' W 122°23'0 0.0
2016-May-30 12:33N 47°38' W 122°23'0 0.0
2016-May-30 11:33N 47°38' W 122°23'0 0.0
2016-May-30 10:33N 47°38' W 122°23'0 0.0
2016-May-30 09:33N 47°38' W 122°23'0 0.0
2016-May-30 08:33N 47°38' W 122°23'0 0.0
2016-May-30 07:33N 47°38' W 122°23'0 0.0
2016-May-30 06:33N 47°38' W 122°23'0 0.0
2016-May-30 05:33N 47°38' W 122°23'0 0.0
2016-May-30 04:33N 47°38' W 122°23'0 0.0
2016-May-30 03:33N 47°38' W 122°23'0 0.0
2016-May-30 02:33N 47°38' W 122°23'0 0.0
2016-May-30 01:33N 47°38' W 122°23'0 0.0
2016-May-30 00:33N 47°38' W 122°23'0 0.0
2016-May-29 23:33N 47°38' W 122°23'0 0.0
2016-May-29 22:33N 47°38' W 122°23'2 1.9
2016-May-29 21:33N 47°38' W 122°25'4 4.2
2016-May-29 20:33N 47°42' W 122°28'5 4.6
2016-May-29 19:33N 47°47' W 122°27'5 5.1
2016-May-29 18:33N 47°52' W 122°29'5 4.9
2016-May-29 17:33N 47°56' W 122°32'11 5.5
2016-May-29 15:33N 48°06' W 122°40'6 6.0
2016-May-29 14:31N 48°10' W 122°46'5 5.3
2016-May-29 13:31N 48°15' W 122°49'6 6.0
2016-May-29 12:33N 48°21' W 122°46'6 6.2
2016-May-29 11:33N 48°27' W 122°45'7 7.5
2016-May-29 10:33N 48°34' W 122°45'7 6.7
2016-May-29 09:33N 48°41' W 122°44'5 5.0
2016-May-29 08:32N 48°46' W 122°46'4 4.1
2016-May-29 07:33N 48°50' W 122°43'0 0.0
2016-May-29 06:31N 48°50' W 122°43'1 0.0
2016-May-28 15:33N 48°50' W 122°44'1 0.8
2016-May-28 14:33N 48°50' W 122°45'1 1.3
2016-May-28 13:34N 48°49' W 122°45'0 0.2
2016-May-28 12:33N 48°49' W 122°45'0 0.4
2016-May-28 11:33N 48°48' W 122°44'3 2.5
2016-May-28 10:32N 48°51' W 122°45'5 5.4
2016-May-28 09:33N 48°45' W 122°45'7 6.6
2016-May-28 08:33N 48°39' W 122°43'7 7.0
2016-May-28 07:33N 48°32' W 122°45'8 8.1
2016-May-28 06:32N 48°24' W 122°44'7 7.6
2016-May-28 05:33N 48°17' W 122°47'6 5.8
2016-May-28 04:32N 48°11' W 122°46'5 4.7
2016-May-28 03:31N 48°08' W 122°40'4 4.6
2016-May-28 02:33N 48°03' W 122°38'5 4.9
2016-May-28 01:33N 47°59' W 122°35'5 5.4
2016-May-28 00:33N 47°55' W 122°29'5 5.0
2016-May-27 23:33N 47°54' W 122°22'7 6.9
2016-May-27 22:33N 47°59' W 122°14'0 0.3
2016-May-27 21:33N 47°59' W 122°13'0 0.0
2016-May-27 20:33N 47°59' W 122°13'0 0.0
2016-May-27 19:33N 47°59' W 122°13'0 0.0
2016-May-27 18:33N 47°59' W 122°13'0 0.0
2016-May-27 17:33N 47°59' W 122°13'0 0.0
2016-May-27 16:33N 47°59' W 122°13'0 0.0
2016-May-27 15:33N 47°59' W 122°13'0 0.0
2016-May-27 14:33N 47°59' W 122°13'0 0.0
2016-May-27 13:33N 47°59' W 122°13'0 0.0
2016-May-27 12:33N 47°59' W 122°13'0 0.0
2016-May-27 11:33N 47°59' W 122°13'0 0.0
2016-May-27 10:33N 47°59' W 122°13'0 0.0
2016-May-27 09:33N 47°59' W 122°13'0 0.0
2016-May-27 08:33N 47°59' W 122°13'0 0.0
2016-May-27 07:33N 47°59' W 122°13'0 0.0
2016-May-27 06:33N 47°59' W 122°13'0 0.0
2016-May-27 05:33N 47°59' W 122°13'0 0.0
2016-May-27 04:33N 47°59' W 122°13'0 0.0
2016-May-27 03:33N 47°59' W 122°13'0 0.0
2016-May-27 02:33N 47°59' W 122°13'0 0.0
2016-May-27 01:33N 47°59' W 122°13'0 0.0
2016-May-27 00:33N 47°59' W 122°13'0 0.0
2016-May-26 23:33N 47°59' W 122°13'0 0.0
2016-May-26 22:33N 47°59' W 122°13'0 0.0
2016-May-26 21:33N 47°59' W 122°13'0 0.0
2016-May-26 20:33N 47°59' W 122°13'0 0.0
2016-May-26 19:33N 47°59' W 122°13'0 0.0
2016-May-26 18:33N 47°59' W 122°13'0 0.0
2016-May-26 17:33N 47°59' W 122°13'0 0.0
2016-May-26 16:33N 47°59' W 122°13'5 4.6
2016-May-26 15:32N 47°57' W 122°20'6 6.1
2016-May-26 14:33N 47°52' W 122°23'7 6.6
2016-May-26 13:33N 47°45' W 122°26'7 7.0
2016-May-26 12:33N 47°38' W 122°27'7 7.1
2016-May-26 11:33N 47°31' W 122°25'7 7.4
2016-May-26 10:33N 47°24' W 122°22'6 6.5
2016-May-26 09:33N 47°19' W 122°27'3 0.2
2016-May-25 18:25N 47°17' W 122°23'2 2.4
2016-May-25 17:33N 47°18' W 122°26'1 1.0
2016-May-25 16:33N 47°18' W 122°27'0 0.2
2016-May-25 15:33N 47°17' W 122°28'0 0.1
2016-May-25 14:33N 47°17' W 122°28'4 3.8
2016-May-25 13:33N 47°21' W 122°25'4 4.4
2016-May-25 12:33N 47°25' W 122°24'5 5.1
2016-May-25 11:33N 47°30' W 122°24'5 5.5
2016-May-25 10:33N 47°36' W 122°24'2 2.4
2016-May-25 09:33N 47°35' W 122°21'0 0.1
2016-May-25 08:33N 47°35' W 122°21'0 0.0
2016-May-25 07:33N 47°35' W 122°21'0 0.0
2016-May-25 06:33N 47°35' W 122°21'0 0.0
2016-May-25 05:33N 47°35' W 122°21'0 0.0
2016-May-25 04:33N 47°35' W 122°21'0 0.0
2016-May-25 03:33N 47°35' W 122°21'0 0.0
2016-May-25 02:33N 47°35' W 122°21'0 0.0
2016-May-25 01:33N 47°35' W 122°21'0 0.0
2016-May-25 00:33N 47°35' W 122°21'0 0.0
2016-May-24 23:33N 47°35' W 122°21'0 0.0
2016-May-24 22:33N 47°35' W 122°21'0 0.0
2016-May-24 21:33N 47°35' W 122°21'0 0.0
2016-May-24 20:33N 47°35' W 122°21'0 0.0
2016-May-24 19:32N 47°35' W 122°21'0 0.0
2016-May-24 18:33N 47°35' W 122°21'0 0.0
2016-May-24 17:33N 47°35' W 122°21'0 0.0
2016-May-24 16:33N 47°35' W 122°21'0 0.1
2016-May-24 15:34N 47°35' W 122°21'4 4.3
2016-May-24 14:34N 47°38' W 122°26'5 5.2
2016-May-24 13:34N 47°43' W 122°27'2 2.0
2016-May-24 12:33N 47°44' W 122°25'0 0.2
2016-May-24 11:34N 47°44' W 122°24'0 0.1
2016-May-24 10:34N 47°44' W 122°24'0 0.0
2016-May-24 09:34N 47°44' W 122°24'0 0.2
2016-May-24 08:33N 47°44' W 122°25'0 0.1
2016-May-24 07:34N 47°44' W 122°25'0 0.1
2016-May-24 06:34N 47°44' W 122°24'0 0.2
2016-May-24 05:34N 47°44' W 122°24'0 0.0
2016-May-24 04:33N 47°44' W 122°24'0 0.2
2016-May-24 03:33N 47°44' W 122°25'2 2.2
2016-May-24 02:34N 47°46' W 122°27'4 3.6
2016-May-24 01:33N 47°49' W 122°28'5 4.5
2016-May-24 00:33N 47°54' W 122°30'7 6.9
2016-May-23 23:33N 47°59' W 122°36'7 6.8
2016-May-23 22:32N 48°06' W 122°40'8 8.1
2016-May-23 21:33N 48°12' W 122°48'6 6.1
2016-May-23 20:33N 48°18' W 122°48'7 7.5
2016-May-23 19:33N 48°25' W 122°45'9 8.6
2016-May-23 18:33N 48°34' W 122°45'8 8.1
2016-May-23 17:33N 48°42' W 122°44'6 6.1
2016-May-23 16:32N 48°48' W 122°45'2 0.5
2016-May-23 12:26N 48°50' W 122°43'0 0.0
2016-May-23 11:14N 48°50' W 122°43'0 0.0
2016-May-23 10:26N 48°50' W 122°43'0 0.0
2016-May-23 09:20N 48°50' W 122°43'0 0.0
2016-May-23 08:26N 48°50' W 122°43'0 0.0
2016-May-23 06:26N 48°50' W 122°43'0 0.0
2016-May-23 05:32N 48°50' W 122°43'0 0.0
2016-May-23 04:32N 48°50' W 122°43'0 0.0
2016-May-23 02:14N 48°50' W 122°43'1 0.3
2016-May-22 22:33N 48°48' W 122°43'0 0.0
2016-May-22 21:33N 48°48' W 122°43'0 0.0
2016-May-22 20:21N 48°48' W 122°43'0 0.2
2016-May-22 19:33N 48°48' W 122°43'0 0.0
2016-May-22 18:31N 48°48' W 122°43'0 0.0
2016-May-22 17:33N 48°48' W 122°43'0 0.0
2016-May-22 16:33N 48°48' W 122°43'0 0.0
2016-May-22 15:33N 48°48' W 122°43'0 0.1
2016-May-22 14:33N 48°48' W 122°43'3 2.8
2016-May-22 13:34N 48°47' W 122°47'6 5.6
2016-May-22 12:34N 48°53' W 122°51'3 3.0
2016-May-22 11:28N 48°50' W 122°48'5 5.4
2016-May-22 10:33N 48°45' W 122°45'6 5.9
2016-May-22 09:34N 48°40' W 122°42'6 6.0
2016-May-22 08:34N 48°34' W 122°45'6 5.9
2016-May-22 07:34N 48°28' W 122°44'6 5.9
2016-May-22 06:34N 48°22' W 122°45'6 6.0
2016-May-22 05:34N 48°17' W 122°47'7 6.5
2016-May-22 04:31N 48°10' W 122°45'  
Track history (hours):
 
Tides and Currents Weather Stations Pressure Air Temp Water Temp Dewpoint Dewpoint Depression Visibility Wind Speed Wind Dir Waves Ship Positions

Adriatic Sea

Owner: Kirby Offshore Marine, LLC, Seattle, WA. More information available from US FCC via Universal Licensing System and Coast Guard Vessel Documentation Center.

Last reported at 2016-Jun-01 03:33 UTC. Time now 2016-Jun-01 03:42 UTC.
Position N 47°35' W 122°21'.

Length 42 m.

Type: Tug. MMSI: 366910890.

Date/timePositionNaut miles runAvg speedWind from/ knotsBaromVisibWave heightAir tempDewpointWater temp
2016-Jun-01 03:33N 47°35' W 122°21'0 0.0
2016-Jun-01 02:33N 47°35' W 122°21'0 0.0
2016-Jun-01 01:33N 47°35' W 122°21'0 0.0
2016-Jun-01 00:33N 47°35' W 122°21'0 0.0
2016-May-31 23:33N 47°35' W 122°21'0 0.0
2016-May-31 22:33N 47°35' W 122°21'0 0.0
2016-May-31 21:33N 47°35' W 122°21'0 0.0
2016-May-31 20:33N 47°35' W 122°21'0 0.0
2016-May-31 19:33N 47°35' W 122°21'0 0.0
2016-May-31 18:33N 47°35' W 122°21'0 0.0
2016-May-31 17:33N 47°35' W 122°21'0 0.0
2016-May-31 16:33N 47°35' W 122°21'0 0.0
2016-May-31 15:33N 47°35' W 122°21'0 0.0
2016-May-31 14:34N 47°35' W 122°21'0 0.0
2016-May-31 13:33N 47°35' W 122°21'0 0.0
2016-May-31 12:33N 47°35' W 122°21'0 0.0
2016-May-31 11:33N 47°35' W 122°21'0 0.0
2016-May-31 10:33N 47°35' W 122°21'0 0.0
2016-May-31 09:33N 47°35' W 122°21'0 0.0
2016-May-31 08:33N 47°35' W 122°21'0 0.0
2016-May-31 07:33N 47°35' W 122°21'0 0.0
2016-May-31 06:33N 47°35' W 122°21'0 0.0
2016-May-31 04:33N 47°35' W 122°21'0 0.0
2016-May-31 03:33N 47°35' W 122°21'0 0.3
2016-May-31 02:33N 47°36' W 122°21'2 2.3
2016-May-31 01:33N 47°38' W 122°23'0 0.0
2016-May-31 00:33N 47°38' W 122°23'0 0.0
2016-May-30 23:33N 47°38' W 122°23'0 0.0
2016-May-30 22:33N 47°38' W 122°23'0 0.0
2016-May-30 21:33N 47°38' W 122°23'0 0.0
2016-May-30 20:33N 47°38' W 122°23'0 0.0
2016-May-30 19:33N 47°38' W 122°23'0 0.0
2016-May-30 18:33N 47°38' W 122°23'0 0.0
2016-May-30 17:33N 47°38' W 122°23'0 0.0
2016-May-30 16:33N 47°38' W 122°23'0 0.0
2016-May-30 15:34N 47°38' W 122°23'0 0.0
2016-May-30 14:33N 47°38' W 122°23'0 0.0
2016-May-30 13:33N 47°38' W 122°23'0 0.0
2016-May-30 12:33N 47°38' W 122°23'0 0.0
2016-May-30 11:33N 47°38' W 122°23'0 0.0
2016-May-30 10:33N 47°38' W 122°23'0 0.0
2016-May-30 09:33N 47°38' W 122°23'0 0.0
2016-May-30 08:33N 47°38' W 122°23'0 0.0
2016-May-30 07:33N 47°38' W 122°23'0 0.0
2016-May-30 06:33N 47°38' W 122°23'0 0.0
2016-May-30 05:33N 47°38' W 122°23'0 0.0
2016-May-30 04:33N 47°38' W 122°23'0 0.0
2016-May-30 03:33N 47°38' W 122°23'0 0.0
2016-May-30 02:33N 47°38' W 122°23'0 0.0
2016-May-30 01:33N 47°38' W 122°23'0 0.0
2016-May-30 00:33N 47°38' W 122°23'0 0.0
2016-May-29 23:33N 47°38' W 122°23'0 0.0
2016-May-29 22:33N 47°38' W 122°23'2 1.9
2016-May-29 21:33N 47°38' W 122°25'4 4.2
2016-May-29 20:33N 47°42' W 122°28'5 4.6
2016-May-29 19:33N 47°47' W 122°27'5 5.1
2016-May-29 18:33N 47°52' W 122°29'5 4.9
2016-May-29 17:33N 47°56' W 122°32'11 5.5
2016-May-29 15:33N 48°06' W 122°40'6 6.0
2016-May-29 14:31N 48°10' W 122°46'5 5.3
2016-May-29 13:31N 48°15' W 122°49'6 6.0
2016-May-29 12:33N 48°21' W 122°46'6 6.2
2016-May-29 11:33N 48°27' W 122°45'7 7.5
2016-May-29 10:33N 48°34' W 122°45'7 6.7
2016-May-29 09:33N 48°41' W 122°44'5 5.0
2016-May-29 08:32N 48°46' W 122°46'4 4.1
2016-May-29 07:33N 48°50' W 122°43'0 0.0
2016-May-29 06:31N 48°50' W 122°43'1 0.0
2016-May-28 15:33N 48°50' W 122°44'1 0.8
2016-May-28 14:33N 48°50' W 122°45'1 1.3
2016-May-28 13:34N 48°49' W 122°45'0 0.2
2016-May-28 12:33N 48°49' W 122°45'0 0.4
2016-May-28 11:33N 48°48' W 122°44'3 2.5
2016-May-28 10:32N 48°51' W 122°45'5 5.4
2016-May-28 09:33N 48°45' W 122°45'7 6.6
2016-May-28 08:33N 48°39' W 122°43'7 7.0
2016-May-28 07:33N 48°32' W 122°45'8 8.1
2016-May-28 06:32N 48°24' W 122°44'7 7.6
2016-May-28 05:33N 48°17' W 122°47'6 5.8
2016-May-28 04:32N 48°11' W 122°46'5 4.7
2016-May-28 03:31N 48°08' W 122°40'4 4.6
2016-May-28 02:33N 48°03' W 122°38'5 4.9
2016-May-28 01:33N 47°59' W 122°35'5 5.4
2016-May-28 00:33N 47°55' W 122°29'5 5.0
2016-May-27 23:33N 47°54' W 122°22'7 6.9
2016-May-27 22:33N 47°59' W 122°14'0 0.3
2016-May-27 21:33N 47°59' W 122°13'0 0.0
2016-May-27 20:33N 47°59' W 122°13'0 0.0
2016-May-27 19:33N 47°59' W 122°13'0 0.0
2016-May-27 18:33N 47°59' W 122°13'0 0.0
2016-May-27 17:33N 47°59' W 122°13'0 0.0
2016-May-27 16:33N 47°59' W 122°13'0 0.0
2016-May-27 15:33N 47°59' W 122°13'0 0.0
2016-May-27 14:33N 47°59' W 122°13'0 0.0
2016-May-27 13:33N 47°59' W 122°13'0 0.0
2016-May-27 12:33N 47°59' W 122°13'0 0.0
2016-May-27 11:33N 47°59' W 122°13'0 0.0
2016-May-27 10:33N 47°59' W 122°13'0 0.0
2016-May-27 09:33N 47°59' W 122°13'0 0.0
2016-May-27 08:33N 47°59' W 122°13'0 0.0
2016-May-27 07:33N 47°59' W 122°13'0 0.0
2016-May-27 06:33N 47°59' W 122°13'0 0.0
2016-May-27 05:33N 47°59' W 122°13'0 0.0
2016-May-27 04:33N 47°59' W 122°13'0 0.0
2016-May-27 03:33N 47°59' W 122°13'0 0.0
2016-May-27 02:33N 47°59' W 122°13'0 0.0
2016-May-27 01:33N 47°59' W 122°13'0 0.0
2016-May-27 00:33N 47°59' W 122°13'0 0.0
2016-May-26 23:33N 47°59' W 122°13'0 0.0
2016-May-26 22:33N 47°59' W 122°13'0 0.0
2016-May-26 21:33N 47°59' W 122°13'0 0.0
2016-May-26 20:33N 47°59' W 122°13'0 0.0
2016-May-26 19:33N 47°59' W 122°13'0 0.0
2016-May-26 18:33N 47°59' W 122°13'0 0.0
2016-May-26 17:33N 47°59' W 122°13'0 0.0
2016-May-26 16:33N 47°59' W 122°13'5 4.6
2016-May-26 15:32N 47°57' W 122°20'6 6.1
2016-May-26 14:33N 47°52' W 122°23'7 6.6
2016-May-26 13:33N 47°45' W 122°26'7 7.0
2016-May-26 12:33N 47°38' W 122°27'7 7.1
2016-May-26 11:33N 47°31' W 122°25'7 7.4
2016-May-26 10:33N 47°24' W 122°22'6 6.5
2016-May-26 09:33N 47°19' W 122°27'3 0.2
2016-May-25 18:25N 47°17' W 122°23'2 2.4
2016-May-25 17:33N 47°18' W 122°26'1 1.0
2016-May-25 16:33N 47°18' W 122°27'0 0.2
2016-May-25 15:33N 47°17' W 122°28'0 0.1
2016-May-25 14:33N 47°17' W 122°28'4 3.8
2016-May-25 13:33N 47°21' W 122°25'4 4.4
2016-May-25 12:33N 47°25' W 122°24'5 5.1
2016-May-25 11:33N 47°30' W 122°24'5 5.5
2016-May-25 10:33N 47°36' W 122°24'2 2.4
2016-May-25 09:33N 47°35' W 122°21'0 0.1
2016-May-25 08:33N 47°35' W 122°21'0 0.0
2016-May-25 07:33N 47°35' W 122°21'0 0.0
2016-May-25 06:33N 47°35' W 122°21'0 0.0
2016-May-25 05:33N 47°35' W 122°21'0 0.0
2016-May-25 04:33N 47°35' W 122°21'0 0.0
2016-May-25 03:33N 47°35' W 122°21'0 0.0
2016-May-25 02:33N 47°35' W 122°21'0 0.0
2016-May-25 01:33N 47°35' W 122°21'0 0.0
2016-May-25 00:33N 47°35' W 122°21'0 0.0
2016-May-24 23:33N 47°35' W 122°21'0 0.0
2016-May-24 22:33N 47°35' W 122°21'0 0.0
2016-May-24 21:33N 47°35' W 122°21'0 0.0
2016-May-24 20:33N 47°35' W 122°21'0 0.0
2016-May-24 19:32N 47°35' W 122°21'0 0.0
2016-May-24 18:33N 47°35' W 122°21'0 0.0
2016-May-24 17:33N 47°35' W 122°21'0 0.0
2016-May-24 16:33N 47°35' W 122°21'0 0.1
2016-May-24 15:34N 47°35' W 122°21'4 4.3
2016-May-24 14:34N 47°38' W 122°26'5 5.2
2016-May-24 13:34N 47°43' W 122°27'2 2.0
2016-May-24 12:33N 47°44' W 122°25'0 0.2
2016-May-24 11:34N 47°44' W 122°24'0 0.1
2016-May-24 10:34N 47°44' W 122°24'0 0.0
2016-May-24 09:34N 47°44' W 122°24'0 0.2
2016-May-24 08:33N 47°44' W 122°25'0 0.1
2016-May-24 07:34N 47°44' W 122°25'0 0.1
2016-May-24 06:34N 47°44' W 122°24'0 0.2
2016-May-24 05:34N 47°44' W 122°24'0 0.0
2016-May-24 04:33N 47°44' W 122°24'0 0.2
2016-May-24 03:33N 47°44' W 122°25'2 2.2
2016-May-24 02:34N 47°46' W 122°27'4 3.6
2016-May-24 01:33N 47°49' W 122°28'5 4.5
2016-May-24 00:33N 47°54' W 122°30'7 6.9
2016-May-23 23:33N 47°59' W 122°36'7 6.8
2016-May-23 22:32N 48°06' W 122°40'8 8.1
2016-May-23 21:33N 48°12' W 122°48'6 6.1
2016-May-23 20:33N 48°18' W 122°48'7 7.5
2016-May-23 19:33N 48°25' W 122°45'9 8.6
2016-May-23 18:33N 48°34' W 122°45'8 8.1
2016-May-23 17:33N 48°42' W 122°44'6 6.1
2016-May-23 16:32N 48°48' W 122°45'2 0.5
2016-May-23 12:26N 48°50' W 122°43'0 0.0
2016-May-23 11:14N 48°50' W 122°43'0 0.0
2016-May-23 10:26N 48°50' W 122°43'0 0.0
2016-May-23 09:20N 48°50' W 122°43'0 0.0
2016-May-23 08:26N 48°50' W 122°43'0 0.0
2016-May-23 06:26N 48°50' W 122°43'0 0.0
2016-May-23 05:32N 48°50' W 122°43'0 0.0
2016-May-23 04:32N 48°50' W 122°43'0 0.0
2016-May-23 02:14N 48°50' W 122°43'1 0.3
2016-May-22 22:33N 48°48' W 122°43'0 0.0
2016-May-22 21:33N 48°48' W 122°43'0 0.0
2016-May-22 20:21N 48°48' W 122°43'0 0.2
2016-May-22 19:33N 48°48' W 122°43'0 0.0
2016-May-22 18:31N 48°48' W 122°43'0 0.0
2016-May-22 17:33N 48°48' W 122°43'0 0.0
2016-May-22 16:33N 48°48' W 122°43'0 0.0
2016-May-22 15:33N 48°48' W 122°43'0 0.1
2016-May-22 14:33N 48°48' W 122°43'3 2.8
2016-May-22 13:34N 48°47' W 122°47'6 5.6
2016-May-22 12:34N 48°53' W 122°51'3 3.0
2016-May-22 11:28N 48°50' W 122°48'5 5.4
2016-May-22 10:33N 48°45' W 122°45'6 5.9
2016-May-22 09:34N 48°40' W 122°42'6 6.0
2016-May-22 08:34N 48°34' W 122°45'6 5.9
2016-May-22 07:34N 48°28' W 122°44'6 5.9
2016-May-22 06:34N 48°22' W 122°45'6 6.0
2016-May-22 05:34N 48°17' W 122°47'7 6.5
2016-May-22 04:31N 48°10' W 122°45'  

Dump ship's entire track history